createdAt,value
2019-01-09T00:01:18.465Z,1.60
2019-01-09T00:03:47.727Z,1.30
2019-01-09T00:06:16.946Z,1.70
2019-01-09T00:08:46.782Z,1.20
2019-01-09T00:11:16.108Z,1.20
2019-01-09T00:13:45.850Z,1.60
2019-01-09T00:16:16.067Z,1.20
2019-01-09T00:18:45.950Z,1.70
2019-01-09T00:21:16.209Z,1.40
2019-01-09T00:23:45.512Z,1.40
2019-01-09T00:26:15.730Z,1.50
2019-01-09T00:28:45.650Z,1.10
2019-01-09T00:31:14.968Z,1.47
2019-01-09T00:33:44.793Z,1.27
2019-01-09T00:36:14.984Z,1.63
2019-01-09T00:38:44.899Z,1.40
2019-01-09T00:41:14.201Z,1.20
2019-01-09T00:43:44.101Z,2.07
2019-01-09T00:46:13.992Z,1.00
2019-01-09T00:48:43.929Z,1.20
2019-01-09T00:51:13.854Z,1.20
2019-01-09T00:53:43.201Z,1.50
2019-01-09T00:56:12.342Z,1.67
2019-01-09T00:58:42.673Z,1.37
2019-01-09T01:01:13.017Z,1.73
2019-01-09T01:04:05.491Z,1.80
2019-01-09T01:07:20.917Z,1.33
2019-01-09T01:10:43.169Z,1.50
2019-01-09T01:13:19.962Z,1.10
2019-01-09T01:16:26.145Z,1.23
2019-01-09T01:19:09.604Z,1.20
2019-01-09T01:21:48.686Z,2.60
2019-01-09T01:24:43.489Z,2.17
2019-01-09T01:27:32.940Z,1.63
2019-01-09T01:30:35.621Z,1.20
2019-01-09T01:33:26.442Z,1.60
2019-01-09T01:36:32.669Z,1.47
2019-01-09T01:39:42.792Z,1.43
2019-01-09T01:43:07.769Z,1.43
2019-01-09T01:46:09.656Z,1.53
2019-01-09T01:49:44.830Z,1.20
2019-01-09T01:52:31.743Z,1.27
2019-01-09T01:55:05.296Z,1.20
2019-01-09T01:57:59.505Z,1.77
2019-01-09T02:01:16.378Z,1.30
2019-01-09T02:04:03.520Z,1.40
2019-01-09T02:06:36.872Z,2.10
2019-01-09T02:09:24.081Z,1.93
2019-01-09T02:12:28.764Z,1.70
2019-01-09T02:15:42.888Z,1.40
2019-01-09T02:19:00.215Z,1.23
2019-01-09T02:21:48.394Z,1.87
2019-01-09T02:24:58.245Z,1.80
2019-01-09T02:27:36.638Z,2.17
2019-01-09T02:30:59.837Z,1.50
2019-01-09T02:33:29.755Z,1.60
2019-01-09T02:35:59.776Z,1.70
2019-01-09T02:38:29.141Z,2.03
2019-01-09T02:40:59.024Z,1.13
2019-01-09T02:43:28.247Z,1.27
2019-01-09T02:45:57.492Z,1.63
2019-01-09T02:48:27.304Z,1.63
2019-01-09T02:50:57.238Z,1.30
2019-01-09T02:53:27.185Z,2.33
2019-01-09T02:55:57.121Z,1.33
2019-01-09T02:58:27.027Z,1.93
2019-01-09T03:00:57.035Z,1.43
2019-01-09T03:03:26.969Z,1.70
2019-01-09T03:05:57.202Z,2.30
2019-01-09T03:08:27.066Z,1.80
2019-01-09T03:10:56.386Z,1.60
2019-01-09T03:13:25.583Z,1.80
2019-01-09T03:15:55.498Z,2.30
2019-01-09T03:18:24.805Z,1.80
2019-01-09T03:20:54.561Z,1.00
2019-01-09T03:23:24.809Z,1.63
2019-01-09T03:25:54.221Z,1.80
2019-01-09T03:28:23.989Z,1.30
2019-01-09T03:30:53.954Z,1.83
2019-01-09T03:33:24.022Z,1.53
2019-01-09T03:35:53.439Z,1.70
2019-01-09T03:38:23.341Z,1.90
2019-01-09T03:40:53.299Z,1.67
2019-01-09T03:43:22.613Z,1.43
2019-01-09T03:45:52.538Z,1.80
2019-01-09T03:48:22.569Z,2.07
2019-01-09T03:50:52.530Z,2.23
2019-01-09T03:53:22.658Z,2.60
2019-01-09T03:55:52.501Z,2.70
2019-01-09T03:58:22.889Z,2.10
2019-01-09T04:00:52.325Z,1.80
2019-01-09T04:03:24.383Z,1.83
2019-01-09T04:05:53.838Z,1.90
2019-01-09T04:08:23.156Z,2.10
2019-01-09T04:10:52.361Z,1.80
2019-01-09T04:13:22.292Z,2.13
2019-01-09T04:15:51.593Z,2.00
2019-01-09T04:18:21.441Z,1.80
2019-01-09T04:20:51.607Z,2.10
2019-01-09T04:23:20.945Z,1.87
2019-01-09T04:25:50.802Z,1.43
2019-01-09T04:28:20.121Z,1.23
2019-01-09T04:30:49.878Z,0.80
2019-01-09T04:33:19.746Z,0.73
2019-01-09T04:35:49.718Z,0.60
2019-01-09T04:38:19.070Z,0.80
2019-01-09T04:40:48.281Z,0.40
2019-01-09T04:43:18.421Z,0.77
2019-01-09T04:45:47.734Z,0.80
2019-01-09T04:48:17.531Z,0.50
2019-01-09T04:50:47.436Z,0.77
2019-01-09T04:53:16.737Z,0.60
2019-01-09T04:55:46.594Z,0.40
2019-01-09T04:58:15.896Z,0.60
2019-01-09T05:00:45.121Z,0.40
2019-01-09T05:03:14.335Z,0.47
2019-01-09T05:05:44.190Z,0.40
2019-01-09T05:08:14.095Z,0.40
2019-01-09T05:10:44.109Z,0.30
2019-01-09T05:13:13.390Z,0.50
2019-01-09T05:15:43.258Z,0.50
2019-01-09T05:18:13.162Z,0.40
2019-01-09T05:20:43.031Z,0.63
2019-01-09T05:23:12.332Z,0.50
2019-01-09T05:25:43.800Z,0.30
2019-01-09T05:28:13.699Z,0.50
2019-01-09T05:30:43.617Z,0.70
2019-01-09T05:33:12.868Z,0.83
2019-01-09T05:35:42.661Z,0.70
2019-01-09T05:38:12.570Z,1.00
2019-01-09T05:40:42.529Z,0.73
2019-01-09T05:43:11.750Z,1.10
2019-01-09T05:45:40.986Z,1.33
2019-01-09T05:48:10.185Z,2.00
2019-01-09T05:50:40.188Z,1.53
2019-01-09T05:53:09.625Z,1.90
2019-01-09T05:55:38.852Z,1.43
2019-01-09T05:58:08.041Z,2.20
2019-01-09T06:00:37.290Z,2.17
2019-01-09T06:03:07.041Z,2.73
2019-01-09T06:05:36.276Z,1.70
2019-01-09T06:08:05.443Z,1.50
2019-01-09T06:10:35.280Z,1.73
2019-01-09T06:13:05.218Z,2.23
2019-01-09T06:15:35.192Z,1.90
2019-01-09T06:18:04.564Z,1.53
2019-01-09T06:20:34.399Z,1.57
2019-01-09T06:23:04.347Z,1.73
2019-01-09T06:25:33.749Z,1.47
2019-01-09T06:28:03.831Z,1.50
2019-01-09T06:30:33.801Z,1.40
2019-01-09T06:33:03.738Z,1.30
2019-01-09T06:35:33.622Z,1.20
2019-01-09T06:38:03.626Z,1.53
2019-01-09T06:40:33.559Z,1.60
2019-01-09T06:43:03.626Z,1.20
2019-01-09T06:45:33.680Z,1.67
2019-01-09T06:48:03.578Z,1.27
2019-01-09T06:50:33.509Z,1.50
2019-01-09T06:53:03.554Z,1.17
2019-01-09T06:55:33.672Z,1.27
2019-01-09T06:58:03.573Z,1.00
2019-01-09T07:00:33.489Z,1.77
2019-01-09T07:03:02.804Z,1.20
2019-01-09T07:05:32.604Z,0.90
2019-01-09T07:08:02.542Z,0.70
2019-01-09T07:10:32.073Z,0.60
2019-01-09T07:13:01.936Z,0.70
2019-01-09T07:15:31.772Z,0.90
2019-01-09T07:18:01.108Z,0.60
2019-01-09T07:20:31.309Z,0.60
2019-01-09T07:23:01.286Z,0.60
2019-01-09T07:25:31.158Z,1.03
2019-01-09T07:28:01.353Z,0.77
2019-01-09T07:30:31.238Z,0.87
2019-01-09T07:33:01.128Z,0.93
2019-01-09T07:35:31.077Z,1.10
2019-01-09T07:38:00.478Z,1.10
2019-01-09T07:40:29.753Z,1.20
2019-01-09T07:42:58.989Z,1.13
2019-01-09T07:45:28.805Z,1.67
2019-01-09T07:47:58.773Z,1.20
2019-01-09T07:50:28.101Z,1.27
2019-01-09T07:52:57.916Z,1.10
2019-01-09T07:55:27.981Z,0.80
2019-01-09T07:57:57.910Z,1.20
2019-01-09T08:00:27.136Z,1.20
2019-01-09T08:02:56.386Z,1.10
2019-01-09T08:05:25.581Z,1.37
2019-01-09T08:07:55.513Z,1.43
2019-01-09T08:10:25.498Z,1.60
2019-01-09T08:12:55.645Z,1.37
2019-01-09T08:15:25.509Z,1.53
2019-01-09T08:17:55.461Z,1.57
2019-01-09T08:20:24.768Z,1.50
2019-01-09T08:22:53.977Z,1.30
2019-01-09T08:25:23.764Z,0.93
2019-01-09T08:27:53.159Z,0.80
2019-01-09T08:30:22.407Z,0.70
2019-01-09T08:32:52.391Z,0.80
2019-01-09T08:35:21.761Z,0.53
2019-01-09T08:37:51.553Z,0.87
2019-01-09T08:40:21.482Z,0.70
2019-01-09T08:42:51.446Z,0.50
2019-01-09T08:45:21.309Z,0.70
2019-01-09T08:47:52.040Z,0.60
2019-01-09T08:50:21.368Z,0.60
2019-01-09T08:52:50.910Z,1.10
2019-01-09T08:55:20.780Z,0.87
2019-01-09T08:57:50.713Z,0.70
2019-01-09T09:00:20.635Z,1.13
2019-01-09T09:02:49.944Z,0.80
2019-01-09T09:05:19.758Z,0.77
2019-01-09T09:07:58.358Z,0.90
2019-01-09T09:10:28.254Z,0.83
2019-01-09T09:12:57.553Z,0.90
2019-01-09T09:15:27.337Z,1.10
2019-01-09T09:17:56.649Z,0.93
2019-01-09T09:20:26.497Z,1.47
2019-01-09T09:22:55.732Z,1.27
2019-01-09T09:25:25.849Z,1.10
2019-01-09T09:27:55.164Z,1.60
2019-01-09T09:30:24.978Z,1.20
2019-01-09T09:32:54.238Z,1.57
2019-01-09T09:35:24.038Z,1.80
2019-01-09T09:37:54.133Z,1.77
2019-01-09T09:40:24.297Z,1.70
2019-01-09T09:42:53.641Z,2.10
2019-01-09T09:45:22.837Z,1.80
2019-01-09T09:47:52.674Z,1.80
2019-01-09T09:50:21.989Z,1.57
2019-01-09T09:52:51.224Z,1.90
2019-01-09T09:55:21.002Z,1.93
2019-01-09T09:57:50.952Z,1.90
2019-01-09T10:00:20.969Z,2.10
2019-01-09T10:02:50.858Z,2.20
2019-01-09T10:05:20.185Z,1.87
2019-01-09T10:07:49.747Z,1.87
2019-01-09T10:10:19.617Z,2.17
2019-01-09T10:12:49.472Z,1.90
2019-01-09T10:15:19.339Z,1.87
2019-01-09T10:17:49.729Z,2.00
2019-01-09T10:20:19.087Z,2.17
2019-01-09T10:22:48.319Z,2.27
2019-01-09T10:25:18.189Z,2.00
2019-01-09T10:27:47.513Z,2.13
2019-01-09T10:30:18.552Z,2.10
2019-01-09T10:32:47.810Z,2.33
2019-01-09T10:35:17.676Z,1.90
2019-01-09T10:37:48.373Z,1.97
2019-01-09T10:40:18.404Z,2.07
2019-01-09T10:42:48.526Z,2.20
2019-01-09T10:45:19.153Z,2.93
2019-01-09T10:47:49.052Z,2.17
2019-01-09T10:50:20.393Z,1.63
2019-01-09T10:52:50.279Z,2.37
2019-01-09T10:55:19.804Z,2.20
2019-01-09T10:57:48.966Z,2.10
2019-01-09T11:00:24.221Z,2.50
2019-01-09T11:02:53.955Z,2.20
2019-01-09T11:05:23.220Z,2.10
2019-01-09T11:07:52.483Z,2.10
2019-01-09T11:10:22.511Z,2.20
2019-01-09T11:12:52.481Z,1.97
2019-01-09T11:15:22.398Z,2.33
2019-01-09T11:17:52.436Z,2.20
2019-01-09T11:20:22.658Z,2.67
2019-01-09T11:22:52.042Z,2.30
2019-01-09T11:25:24.393Z,2.00
2019-01-09T11:27:53.686Z,2.37
2019-01-09T11:30:23.682Z,2.50
2019-01-09T11:32:53.656Z,2.50
2019-01-09T11:35:25.509Z,3.00
2019-01-09T11:37:54.874Z,2.17
2019-01-09T11:40:24.812Z,2.30
2019-01-09T11:42:54.162Z,2.00
2019-01-09T11:45:24.001Z,1.80
2019-01-09T11:47:54.057Z,2.43
2019-01-09T11:50:23.383Z,1.93
2019-01-09T11:52:52.619Z,2.30
2019-01-09T11:55:21.860Z,2.30
2019-01-09T11:57:51.641Z,2.00
2019-01-09T12:00:25.330Z,1.90
2019-01-09T12:02:55.290Z,1.97
2019-01-09T12:05:28.193Z,1.77
2019-01-09T12:07:58.049Z,2.63
2019-01-09T12:10:30.177Z,2.17
2019-01-09T12:12:58.858Z,2.37
2019-01-09T12:15:28.907Z,2.40
2019-01-09T12:17:58.213Z,2.73
2019-01-09T12:20:27.444Z,2.83
2019-01-09T12:22:57.334Z,2.37
2019-01-09T12:25:26.697Z,2.40
2019-01-09T12:27:56.557Z,2.30
2019-01-09T12:30:27.074Z,1.87
2019-01-09T12:32:56.629Z,2.17
2019-01-09T12:35:26.102Z,2.23
2019-01-09T12:37:55.952Z,2.77
2019-01-09T12:40:25.301Z,2.10
2019-01-09T12:42:55.252Z,1.77
2019-01-09T12:45:25.186Z,2.00
2019-01-09T12:47:54.497Z,1.90
2019-01-09T12:50:25.874Z,2.07
2019-01-09T12:52:55.148Z,1.83
2019-01-09T12:55:25.042Z,2.20
2019-01-09T12:57:54.353Z,2.27
2019-01-09T13:00:29.081Z,2.27
2019-01-09T13:02:58.986Z,2.07
2019-01-09T13:05:28.957Z,1.80
2019-01-09T13:07:58.354Z,2.27
2019-01-09T13:10:28.227Z,1.73
2019-01-09T13:12:57.525Z,1.87
2019-01-09T13:15:27.282Z,1.60
2019-01-09T13:17:56.506Z,1.97
2019-01-09T13:20:26.284Z,1.43
2019-01-09T13:22:55.678Z,1.87
2019-01-09T13:25:25.467Z,1.90
2019-01-09T13:27:54.806Z,1.73
2019-01-09T13:30:25.133Z,2.07
2019-01-09T13:32:54.962Z,2.13
2019-01-09T13:35:24.949Z,1.93
2019-01-09T13:37:54.887Z,2.00
2019-01-09T13:40:24.227Z,2.80
2019-01-09T13:42:53.385Z,2.00
2019-01-09T13:45:22.968Z,2.30
2019-01-09T13:47:52.203Z,2.47
2019-01-09T13:50:24.151Z,2.43
2019-01-09T13:52:54.085Z,2.23
2019-01-09T13:55:23.401Z,2.43
2019-01-09T13:57:53.237Z,2.07
2019-01-09T14:00:24.359Z,2.13
2019-01-09T14:02:54.443Z,2.27
2019-01-09T14:05:25.278Z,2.40
2019-01-09T14:07:55.108Z,2.70
2019-01-09T14:10:25.474Z,2.00
2019-01-09T14:12:54.759Z,2.30
2019-01-09T14:15:24.657Z,2.43
2019-01-09T14:17:54.625Z,2.30
2019-01-09T14:20:24.654Z,2.23
2019-01-09T14:22:54.514Z,2.20
2019-01-09T14:25:24.505Z,1.93
2019-01-09T14:27:54.394Z,2.43
2019-01-09T14:30:24.848Z,2.20
2019-01-09T14:32:54.113Z,2.50
2019-01-09T14:35:23.961Z,1.70
2019-01-09T14:37:53.951Z,2.10
2019-01-09T14:40:23.856Z,2.13
2019-01-09T14:42:53.935Z,2.33
2019-01-09T14:45:24.073Z,1.80
2019-01-09T14:47:54.442Z,2.40
2019-01-09T14:50:25.636Z,2.37
2019-01-09T14:52:55.845Z,2.40
2019-01-09T14:55:25.644Z,2.00
2019-01-09T14:57:56.060Z,1.80
2019-01-09T15:00:27.997Z,1.67
2019-01-09T15:02:57.450Z,2.00
2019-01-09T15:05:26.658Z,2.20
2019-01-09T15:07:56.693Z,2.17
2019-01-09T15:10:27.028Z,2.50
2019-01-09T15:12:57.513Z,2.00
2019-01-09T15:15:26.920Z,1.80
2019-01-09T15:17:56.685Z,2.50
2019-01-09T15:20:26.638Z,2.07
2019-01-09T15:22:55.960Z,2.13
2019-01-09T15:25:25.182Z,2.37
2019-01-09T15:27:55.062Z,2.27
2019-01-09T15:30:30.075Z,2.17
2019-01-09T15:32:59.445Z,1.97
2019-01-09T15:35:29.564Z,2.63
2019-01-09T15:37:59.458Z,2.50
2019-01-09T15:40:30.759Z,2.27
2019-01-09T15:43:01.215Z,2.10
2019-01-09T15:45:31.147Z,2.90
2019-01-09T15:48:01.080Z,2.63
2019-01-09T15:50:30.921Z,2.80
2019-01-09T15:53:00.778Z,2.83
2019-01-09T15:55:30.692Z,2.77
2019-01-09T15:57:59.925Z,2.40
2019-01-09T16:00:35.285Z,2.60
2019-01-09T16:03:05.938Z,3.43
2019-01-09T16:05:35.263Z,2.67
2019-01-09T16:08:04.685Z,2.87
2019-01-09T16:10:33.957Z,2.33
2019-01-09T16:13:03.191Z,3.00
2019-01-09T16:15:33.065Z,2.00
2019-01-09T16:18:03.017Z,3.13
2019-01-09T16:20:32.983Z,2.70
2019-01-09T16:23:02.199Z,3.17
2019-01-09T16:25:31.433Z,3.30
2019-01-09T16:28:01.285Z,3.30
2019-01-09T16:30:41.429Z,3.23
2019-01-09T16:33:11.391Z,3.10
2019-01-09T16:35:41.337Z,3.30
2019-01-09T16:38:11.195Z,3.13
2019-01-09T16:40:41.146Z,3.23
2019-01-09T16:43:11.082Z,3.90
2019-01-09T16:45:41.139Z,2.83
2019-01-09T16:48:10.562Z,3.73
2019-01-09T16:50:40.670Z,3.80
2019-01-09T16:53:10.611Z,3.53
2019-01-09T16:55:40.574Z,3.13
2019-01-09T16:58:10.541Z,3.80
2019-01-09T17:00:40.754Z,3.70
2019-01-09T17:03:10.686Z,4.00
2019-01-09T17:05:40.822Z,3.80
2019-01-09T17:08:11.034Z,4.30
2019-01-09T17:10:40.410Z,4.80
2019-01-09T17:13:10.417Z,3.63
2019-01-09T17:15:40.449Z,4.33
2019-01-09T17:18:09.736Z,4.20
2019-01-09T17:20:39.594Z,4.27
2019-01-09T17:23:09.554Z,3.97
2019-01-09T17:25:38.892Z,4.33
2019-01-09T17:28:08.122Z,4.27
2019-01-09T17:30:39.198Z,5.10
2019-01-09T17:33:09.145Z,4.37
2019-01-09T17:35:39.129Z,3.87
2019-01-09T17:38:08.898Z,3.53
2019-01-09T17:40:41.312Z,3.80
2019-01-09T17:43:09.899Z,4.30
2019-01-09T17:45:39.761Z,4.60
2019-01-09T17:48:09.889Z,4.27
2019-01-09T17:50:41.033Z,4.30
2019-01-09T17:53:10.404Z,4.17
2019-01-09T17:55:39.637Z,4.40
2019-01-09T17:58:09.462Z,4.73
2019-01-09T18:00:41.731Z,4.60
2019-01-09T18:03:11.181Z,3.90
2019-01-09T18:05:40.730Z,4.10
2019-01-09T18:08:11.179Z,4.80
2019-01-09T18:10:49.723Z,3.90
2019-01-09T18:13:12.791Z,5.07
2019-01-09T18:15:42.147Z,3.97
2019-01-09T18:18:12.322Z,5.20
2019-01-09T18:20:41.652Z,4.30
2019-01-09T18:23:11.494Z,4.30
2019-01-09T18:25:40.918Z,4.80
2019-01-09T18:28:10.764Z,4.73
2019-01-09T18:30:50.859Z,5.17
2019-01-09T18:33:25.618Z,4.83
2019-01-09T18:36:51.886Z,4.57
2019-01-09T18:39:55.837Z,5.03
2019-01-09T18:42:43.166Z,4.20
2019-01-09T18:45:29.037Z,4.60
2019-01-09T18:48:38.550Z,4.77
2019-01-09T18:51:41.203Z,4.83
2019-01-09T18:54:10.498Z,4.53
2019-01-09T18:56:40.342Z,4.57
2019-01-09T18:59:10.068Z,4.47
2019-01-09T19:01:39.845Z,4.10
2019-01-09T19:04:14.167Z,3.70
2019-01-09T19:06:44.297Z,4.70
2019-01-09T19:09:14.369Z,4.80
2019-01-09T19:11:50.541Z,4.17
2019-01-09T19:14:15.311Z,4.70
2019-01-09T19:16:44.503Z,5.20
2019-01-09T19:19:14.341Z,4.30
2019-01-09T19:21:43.987Z,4.67
2019-01-09T19:24:13.818Z,4.53
2019-01-09T19:26:43.161Z,4.63
2019-01-09T19:29:13.191Z,4.57
2019-01-09T19:31:43.213Z,5.13
2019-01-09T19:34:12.554Z,4.43
2019-01-09T19:36:42.441Z,4.37
2019-01-09T19:39:12.424Z,5.00
2019-01-09T19:41:42.393Z,4.03
2019-01-09T19:44:12.451Z,4.57
2019-01-09T19:46:42.398Z,4.20
2019-01-09T19:49:11.734Z,4.00
2019-01-09T19:51:40.882Z,3.93
2019-01-09T19:54:10.746Z,3.77
2019-01-09T19:56:40.066Z,4.00
2019-01-09T19:59:09.976Z,4.23
2019-01-09T20:01:39.284Z,4.70
2019-01-09T20:04:09.122Z,4.20
2019-01-09T20:06:38.557Z,4.00
2019-01-09T20:09:09.050Z,4.23
2019-01-09T20:11:38.884Z,4.40
2019-01-09T20:14:08.277Z,4.27
2019-01-09T20:16:37.508Z,3.10
2019-01-09T20:19:06.771Z,4.30
2019-01-09T20:21:36.902Z,3.83
2019-01-09T20:24:06.885Z,4.53
2019-01-09T20:26:36.782Z,4.47
2019-01-09T20:29:06.863Z,4.30
2019-01-09T20:31:36.173Z,4.30
2019-01-09T20:34:06.551Z,4.53
2019-01-09T20:36:36.633Z,3.83
2019-01-09T20:39:08.040Z,4.73
2019-01-09T20:41:37.433Z,3.80
2019-01-09T20:44:07.466Z,4.00
2019-01-09T20:46:36.861Z,4.13
2019-01-09T20:49:06.764Z,4.47
2019-01-09T20:51:36.405Z,3.80
2019-01-09T20:54:06.431Z,3.97
2019-01-09T20:56:36.438Z,4.10
2019-01-09T20:59:06.917Z,3.43
2019-01-09T21:01:36.201Z,4.50
2019-01-09T21:04:06.277Z,3.87
2019-01-09T21:06:36.257Z,3.87
2019-01-09T21:09:07.911Z,4.17
2019-01-09T21:11:44.123Z,3.97
2019-01-09T21:14:08.797Z,4.37
2019-01-09T21:16:38.811Z,3.80
2019-01-09T21:19:08.783Z,3.53
2019-01-09T21:21:38.078Z,3.67
2019-01-09T21:24:07.430Z,3.93
2019-01-09T21:26:36.782Z,3.63
2019-01-09T21:29:06.466Z,3.17
2019-01-09T21:31:36.229Z,3.53
2019-01-09T21:34:06.475Z,3.57
2019-01-09T21:36:36.056Z,4.30
2019-01-09T21:39:09.251Z,3.93
2019-01-09T21:41:38.620Z,4.17
2019-01-09T21:44:15.897Z,3.23
2019-01-09T21:46:46.074Z,3.73
2019-01-09T21:49:13.042Z,3.67
2019-01-09T21:51:43.371Z,3.53
2019-01-09T21:54:13.961Z,3.87
2019-01-09T21:56:43.308Z,3.53
2019-01-09T21:59:13.508Z,3.97
2019-01-09T22:01:43.491Z,3.23
2019-01-09T22:04:13.547Z,3.17
2019-01-09T22:06:43.631Z,3.73
2019-01-09T22:09:12.948Z,3.17
2019-01-09T22:11:42.203Z,3.23
2019-01-09T22:14:11.741Z,3.40
2019-01-09T22:16:41.651Z,2.87
2019-01-09T22:19:12.094Z,3.33
2019-01-09T22:21:42.502Z,3.63
2019-01-09T22:24:12.458Z,3.07
2019-01-09T22:26:42.377Z,3.50
2019-01-09T22:29:11.683Z,3.27
2019-01-09T22:31:41.579Z,3.07
2019-01-09T22:34:10.925Z,3.23
2019-01-09T22:36:40.781Z,2.63
2019-01-09T22:39:10.697Z,3.20
2019-01-09T22:41:40.675Z,3.10
2019-01-09T22:44:10.009Z,2.57
2019-01-09T22:46:39.853Z,3.07
2019-01-09T22:49:10.487Z,2.97
2019-01-09T22:51:40.404Z,3.07
2019-01-09T22:54:10.367Z,2.70
2019-01-09T22:56:40.283Z,3.33
2019-01-09T22:59:10.112Z,3.30
2019-01-09T23:01:39.973Z,2.80
2019-01-09T23:04:09.292Z,3.30
2019-01-09T23:06:38.548Z,3.23
2019-01-09T23:09:08.566Z,2.67
2019-01-09T23:11:38.433Z,3.00
2019-01-09T23:14:08.332Z,2.97
2019-01-09T23:16:37.948Z,2.60
2019-01-09T23:19:07.239Z,2.63
2019-01-09T23:21:36.381Z,3.00
2019-01-09T23:24:06.326Z,2.40
2019-01-09T23:26:35.629Z,3.10
2019-01-09T23:29:05.291Z,2.97
2019-01-09T23:31:34.504Z,3.10
2019-01-09T23:34:04.021Z,3.13
2019-01-09T23:36:33.990Z,2.80
2019-01-09T23:39:05.493Z,3.07
2019-01-09T23:41:35.338Z,2.97
2019-01-09T23:44:05.416Z,3.53
2019-01-09T23:46:34.806Z,3.27
2019-01-09T23:49:04.195Z,3.10
2019-01-09T23:51:34.077Z,3.40
2019-01-09T23:54:03.406Z,3.43
2019-01-09T23:56:33.209Z,2.87
2019-01-09T23:59:03.190Z,3.57
